Beaver Dam, WI

1:11 PM CDT on May 27, 2015 (GMT -0500)
2 miles North of | | Change Station
CLOSE
Current Station
Personal Weather Station
Location: Beaver Dam, WI
Elevation: 889 ft
Nearby Weather Stations

Elev 889 ft 43.50 °N, 88.86 °W | Updated 3 minutes ago

Overcast
Overcast
61.1 °F
Feels Like 61.1 °F
N
1.0
Wind Variable Wind from North
Gusts 3.0 mph

Today
High -- | Low -- °F
--% Chance of Precip.
Yesterday
High -- | Low -- °F
Precip. -- in
5:20 AM 8:24 PM
Waxing Gibbous, 69% visible
Pressure 30.01 in
Visibility 10.0 miles
Clouds Mostly Cloudy 7500 ft
Mostly Cloudy 10000 ft
Dew Point 61 °F
Humidity 100%
Rainfall 0.11 in
Snow Depth Not available.
UV 6 out of 12
Pollen 7.70 out of 12
Air Quality Not available.
Flu Activity Sporadic
METAR KUNU 271755Z AUTO 36005KT 10SM BKN075 BKN100 17/13 A3001 RMK AO2 60010 T01740125 10175 20149

More Conditions Fewer Conditions

Pressure 30.01 in
Visibility 10.0 miles
Clouds Mostly Cloudy 7500 ft
Mostly Cloudy 10000 ft
Dew Point 61 °F
Humidity 100%
Rainfall 0.11 in
Snow Depth Not available.
UV 6 out of 12
Pollen 7.70 out of 12
Air Quality Not available.
Flu Activity Sporadic
METAR KUNU 271755Z AUTO 36005KT 10SM BKN075 BKN100 17/13 A3001 RMK AO2 60010 T01740125 10175 20149

More Conditions Fewer Conditions

10-Day Weather Forecast

Almanac

Astronomy

May. 27, 2015 Rise Set
Actual Time
Civil Twilight
Nautical Twilight
Astronomical Twilight
Moon
Length of Visible Light
Length of Day
Tomorrow will be .
, % of the Moon is Illuminated

Today's Extremes

State Highs State Lows

Community

WunderPhotos

Upload Photos

1,824,744 photos uploaded!

WunderBlogs® & News

Nearby

Air Quality

  Air Quality AQ Index Pollutant
Not available.

Snow Depth

Station Depth Elevation

Earthquake Activity

City Distance Mag. Time & Date
Minimum magnitude displayed is 2.5.

Coastal Water Temperatures

Place Temperature

Stations

Nearby Weather Stations

Station Location Temp. Windchill Dew Point Humidity Wind Precip. Elev Updated Type